createdAt,value
2022-10-17T00:00:06.145Z,77.00
2022-10-17T00:02:32.790Z,78.00
2022-10-17T00:04:59.432Z,76.20
2022-10-17T00:07:26.305Z,76.00
2022-10-17T00:09:53.160Z,76.20
2022-10-17T00:12:20.130Z,75.60
2022-10-17T00:14:46.733Z,75.10
2022-10-17T00:17:15.093Z,74.80
2022-10-17T00:19:41.867Z,75.40
2022-10-17T00:22:08.520Z,76.00
2022-10-17T00:24:35.107Z,75.70
2022-10-17T00:27:01.703Z,75.60
2022-10-17T00:29:28.376Z,74.60
2022-10-17T00:31:56.139Z,75.00
2022-10-17T00:34:23.337Z,75.80
2022-10-17T00:36:51.821Z,75.70
2022-10-17T00:39:18.450Z,76.30
2022-10-17T00:41:45.068Z,75.50
2022-10-17T00:44:30.005Z,74.80
2022-10-17T00:46:57.150Z,74.60
2022-10-17T00:49:26.124Z,74.70
2022-10-17T00:51:53.933Z,75.30
2022-10-17T00:54:23.139Z,75.00
2022-10-17T00:56:50.300Z,75.50
2022-10-17T00:59:18.394Z,75.70
2022-10-17T01:01:50.904Z,75.00
2022-10-17T01:04:18.159Z,76.30
2022-10-17T01:06:45.458Z,75.60
2022-10-17T01:09:12.055Z,74.60
2022-10-17T01:11:38.615Z,75.20
2022-10-17T01:14:08.191Z,75.10
2022-10-17T01:16:34.773Z,75.50
2022-10-17T01:19:01.389Z,76.00
2022-10-17T01:21:40.915Z,76.50
2022-10-17T01:24:07.526Z,76.90
2022-10-17T01:26:55.254Z,77.00
2022-10-17T01:29:48.416Z,76.10
2022-10-17T01:32:20.382Z,76.30
2022-10-17T01:34:52.581Z,75.30
2022-10-17T01:37:21.538Z,75.20
2022-10-17T01:39:50.528Z,76.80
2022-10-17T01:42:50.354Z,77.30
2022-10-17T01:45:25.024Z,75.70
2022-10-17T01:47:52.697Z,75.20
2022-10-17T01:50:25.680Z,75.70
2022-10-17T01:52:55.313Z,75.30
2022-10-17T01:55:30.633Z,75.60
2022-10-17T01:58:06.803Z,75.40
2022-10-17T02:00:34.569Z,75.00
2022-10-17T02:03:03.983Z,75.20
2022-10-17T02:05:36.657Z,75.90
2022-10-17T02:08:04.025Z,76.20
2022-10-17T02:10:39.482Z,75.60
2022-10-17T02:13:20.936Z,75.20
2022-10-17T02:16:04.767Z,75.70
2022-10-17T02:18:37.449Z,75.40
2022-10-17T02:21:09.021Z,76.30
2022-10-17T02:23:50.680Z,76.40
2022-10-17T02:26:26.493Z,76.10
2022-10-17T02:29:22.607Z,76.10
2022-10-17T02:31:58.367Z,76.50
2022-10-17T02:34:27.490Z,75.90
2022-10-17T02:36:57.256Z,75.90
2022-10-17T02:39:25.032Z,75.80
2022-10-17T02:41:52.655Z,75.80
2022-10-17T02:44:20.043Z,76.00
2022-10-17T02:46:52.981Z,76.00
2022-10-17T02:49:31.357Z,75.70
2022-10-17T02:52:03.632Z,76.80
2022-10-17T02:54:41.625Z,76.30
2022-10-17T02:57:34.825Z,76.50
2022-10-17T03:00:03.987Z,76.90
2022-10-17T03:02:38.637Z,76.90
2022-10-17T03:05:06.641Z,76.80
2022-10-17T03:07:33.251Z,76.80
2022-10-17T03:10:00.839Z,76.20
2022-10-17T03:12:27.784Z,75.60
2022-10-17T03:14:54.824Z,75.20
2022-10-17T03:17:21.455Z,75.20
2022-10-17T03:19:48.039Z,75.30
2022-10-17T03:22:14.873Z,75.10
2022-10-17T03:24:44.693Z,75.00
2022-10-17T03:27:11.336Z,75.30
2022-10-17T03:29:38.609Z,75.90
2022-10-17T03:32:07.173Z,76.10
2022-10-17T03:34:34.553Z,76.90
2022-10-17T03:37:01.554Z,76.70
2022-10-17T03:39:30.192Z,75.70
2022-10-17T03:41:56.832Z,75.40
2022-10-17T03:44:24.084Z,74.30
2022-10-17T03:46:50.750Z,75.50
2022-10-17T03:49:17.570Z,76.20
2022-10-17T03:51:44.254Z,76.30
2022-10-17T03:54:14.080Z,76.50
2022-10-17T03:56:40.726Z,76.00
2022-10-17T03:59:15.613Z,75.90
2022-10-17T04:01:45.866Z,76.40
2022-10-17T04:04:13.071Z,77.50
2022-10-17T04:06:39.886Z,78.20
2022-10-17T04:09:07.758Z,78.40
2022-10-17T04:11:47.527Z,78.80
2022-10-17T04:14:14.421Z,78.70
2022-10-17T04:16:42.198Z,77.70
2022-10-17T04:19:14.797Z,78.20
2022-10-17T04:21:46.366Z,77.70
2022-10-17T04:24:14.317Z,78.00
2022-10-17T04:26:49.827Z,78.60
2022-10-17T04:29:16.779Z,78.30
2022-10-17T04:31:45.242Z,79.00
2022-10-17T04:34:18.312Z,78.00
2022-10-17T04:36:45.673Z,77.40
2022-10-17T04:41:45.356Z,76.90
2022-10-17T04:44:12.279Z,76.70
2022-10-17T04:46:43.048Z,77.20
2022-10-17T04:49:09.745Z,77.50
2022-10-17T04:51:38.207Z,78.50
2022-10-17T04:54:18.321Z,78.40
2022-10-17T04:56:48.668Z,77.30
2022-10-17T04:59:15.432Z,76.00
2022-10-17T05:01:44.319Z,77.30
2022-10-17T05:04:11.181Z,78.90
2022-10-17T05:06:38.403Z,79.50
2022-10-17T05:09:22.072Z,80.90
2022-10-17T05:11:48.905Z,79.50
2022-10-17T05:14:15.746Z,78.70
2022-10-17T05:16:42.597Z,78.60
2022-10-17T05:19:09.307Z,78.40
2022-10-17T05:21:42.464Z,78.40
2022-10-17T05:24:09.711Z,78.90
2022-10-17T05:26:37.967Z,78.80
2022-10-17T05:29:05.452Z,78.10
2022-10-17T05:31:35.805Z,78.00
2022-10-17T05:34:03.098Z,77.50
2022-10-17T05:36:32.208Z,77.90
2022-10-17T05:39:00.453Z,78.50
2022-10-17T05:41:28.349Z,78.00
2022-10-17T05:43:55.015Z,77.30
2022-10-17T05:46:32.203Z,77.70
2022-10-17T05:48:59.468Z,77.30
2022-10-17T05:51:26.795Z,77.00
2022-10-17T05:53:55.441Z,76.40
2022-10-17T05:56:25.613Z,76.10
2022-10-17T05:58:56.240Z,76.50
2022-10-17T06:01:33.410Z,76.40
2022-10-17T06:04:00.097Z,77.70
2022-10-17T06:06:26.729Z,78.40
2022-10-17T06:08:53.412Z,79.10
2022-10-17T06:11:25.341Z,79.50
2022-10-17T06:13:51.978Z,79.60
2022-10-17T06:16:23.784Z,79.10
2022-10-17T06:18:50.410Z,79.00
2022-10-17T06:21:24.447Z,78.40
2022-10-17T06:23:53.321Z,78.10
2022-10-17T06:26:28.790Z,78.40
2022-10-17T06:28:55.983Z,79.20
2022-10-17T06:31:23.132Z,78.50
2022-10-17T06:33:50.505Z,78.10
2022-10-17T06:36:17.633Z,77.30
2022-10-17T06:38:45.978Z,77.70
2022-10-17T06:41:20.139Z,77.20
2022-10-17T06:43:47.119Z,77.90
2022-10-17T06:46:32.548Z,78.10
2022-10-17T06:49:02.118Z,77.20
2022-10-17T06:51:35.861Z,77.80
2022-10-17T06:54:03.379Z,77.30
2022-10-17T06:56:52.882Z,77.50
2022-10-17T06:59:51.635Z,77.40
2022-10-17T07:02:24.053Z,77.50
2022-10-17T07:04:51.659Z,77.40
2022-10-17T07:07:18.438Z,76.80
2022-10-17T07:09:45.132Z,77.00
2022-10-17T07:12:12.761Z,76.60
2022-10-17T07:14:43.399Z,76.40
2022-10-17T07:17:10.740Z,76.30
2022-10-17T07:19:37.838Z,75.30
2022-10-17T07:22:04.538Z,75.20
2022-10-17T07:24:32.435Z,75.20
2022-10-17T07:27:08.173Z,75.00
2022-10-17T07:29:34.856Z,74.70
2022-10-17T07:32:08.748Z,74.40
2022-10-17T07:34:35.748Z,73.40
2022-10-17T07:37:03.148Z,74.10
2022-10-17T07:39:29.849Z,74.30
2022-10-17T07:41:56.774Z,74.30
2022-10-17T07:44:24.166Z,74.10
2022-10-17T07:46:52.457Z,72.90
2022-10-17T07:49:19.115Z,72.60
2022-10-17T07:54:18.868Z,73.10
2022-10-17T07:56:50.320Z,72.50
2022-10-17T07:59:20.120Z,71.90
2022-10-17T08:01:46.719Z,71.30
2022-10-17T08:04:13.330Z,71.30
2022-10-17T08:06:39.926Z,71.30
2022-10-17T08:09:06.625Z,71.10
2022-10-17T08:11:33.282Z,71.10
2022-10-17T08:13:59.884Z,70.70
2022-10-17T08:16:26.543Z,70.30
2022-10-17T08:18:53.228Z,69.70
2022-10-17T08:21:19.858Z,70.40
2022-10-17T08:23:46.509Z,70.50
2022-10-17T08:26:16.641Z,70.20
2022-10-17T08:28:43.277Z,69.50
2022-10-17T08:31:11.344Z,69.50
2022-10-17T08:33:37.964Z,68.80
2022-10-17T08:36:05.333Z,68.60
2022-10-17T08:38:35.293Z,68.10
2022-10-17T08:41:12.054Z,68.60
2022-10-17T08:43:38.631Z,68.70
2022-10-17T08:46:06.745Z,68.50
2022-10-17T08:48:36.542Z,68.30
2022-10-17T08:51:10.542Z,68.30
2022-10-17T08:53:43.449Z,67.90
2022-10-17T08:56:44.075Z,66.40
2022-10-17T08:59:13.891Z,65.60
2022-10-17T09:01:43.881Z,63.50
2022-10-17T09:04:22.701Z,63.70
2022-10-17T09:06:57.290Z,63.50
2022-10-17T09:09:27.029Z,63.70
2022-10-17T09:12:02.504Z,63.50
2022-10-17T09:14:31.881Z,64.00
2022-10-17T09:17:04.675Z,64.50
2022-10-17T09:19:46.305Z,65.10
2022-10-17T09:22:18.638Z,64.90
2022-10-17T09:24:55.438Z,65.20
2022-10-17T09:27:24.245Z,65.50
2022-10-17T09:29:54.403Z,65.10
2022-10-17T09:32:23.739Z,64.70
2022-10-17T09:34:51.653Z,64.50
2022-10-17T09:37:18.406Z,64.30
2022-10-17T09:39:45.518Z,65.10
2022-10-17T09:42:19.291Z,65.50
2022-10-17T09:44:49.822Z,65.20
2022-10-17T09:47:25.559Z,64.70
2022-10-17T09:49:52.550Z,64.40
2022-10-17T09:52:21.399Z,64.10
2022-10-17T09:54:55.964Z,63.60
2022-10-17T09:57:22.829Z,62.10
2022-10-17T10:00:00.210Z,61.40
2022-10-17T10:02:28.616Z,60.90
2022-10-17T10:05:10.567Z,60.70
2022-10-17T10:07:38.766Z,60.90
2022-10-17T10:10:24.177Z,60.00
2022-10-17T10:13:02.754Z,59.60
2022-10-17T10:15:37.742Z,59.90
2022-10-17T10:18:24.332Z,58.60
2022-10-17T10:21:08.234Z,58.30
2022-10-17T10:23:39.969Z,57.90
2022-10-17T10:26:13.161Z,58.20
2022-10-17T10:28:41.933Z,57.00
2022-10-17T10:31:09.580Z,56.10
2022-10-17T10:33:41.679Z,52.60
2022-10-17T10:36:09.046Z,52.80
2022-10-17T10:38:38.910Z,52.80
2022-10-17T10:41:07.699Z,52.50
2022-10-17T10:43:43.906Z,51.60
2022-10-17T10:46:27.347Z,50.30
2022-10-17T10:48:59.588Z,51.00
2022-10-17T10:51:32.013Z,50.80
2022-10-17T10:54:15.162Z,48.40
2022-10-17T10:56:44.365Z,48.30
2022-10-17T10:59:23.131Z,47.10
2022-10-17T11:01:49.694Z,47.50
2022-10-17T11:04:27.310Z,46.90
2022-10-17T11:06:58.984Z,47.10
2022-10-17T11:09:31.429Z,48.00
2022-10-17T11:12:22.465Z,48.30
2022-10-17T11:14:53.650Z,48.10
2022-10-17T11:17:28.770Z,48.80
2022-10-17T11:20:05.741Z,49.00
2022-10-17T11:22:36.495Z,48.20
2022-10-17T11:25:14.877Z,48.60
2022-10-17T11:27:41.498Z,48.30
2022-10-17T11:30:12.398Z,48.40
2022-10-17T11:32:42.231Z,46.70
2022-10-17T11:35:23.598Z,46.60
2022-10-17T11:37:52.985Z,45.50
2022-10-17T11:40:26.958Z,45.70
2022-10-17T11:42:58.471Z,44.20
2022-10-17T11:45:26.331Z,45.40
2022-10-17T11:48:00.400Z,45.80
2022-10-17T11:53:31.206Z,44.40
2022-10-17T11:55:58.804Z,45.30
2022-10-17T11:58:39.174Z,44.10
2022-10-17T12:01:15.207Z,44.30
2022-10-17T12:03:42.008Z,43.90
2022-10-17T12:06:29.571Z,43.30
2022-10-17T12:09:14.786Z,43.30
2022-10-17T12:11:57.965Z,43.50
2022-10-17T12:14:33.416Z,44.80
2022-10-17T12:17:00.574Z,44.10
2022-10-17T12:19:32.551Z,43.60
2022-10-17T12:21:59.207Z,43.60
2022-10-17T12:24:40.852Z,42.50
2022-10-17T12:27:22.729Z,40.50
2022-10-17T12:29:50.463Z,40.10
2022-10-17T12:32:17.142Z,41.40
2022-10-17T12:34:53.860Z,40.70
2022-10-17T12:37:59.452Z,41.20
2022-10-17T12:40:35.354Z,41.60
2022-10-17T12:43:19.258Z,40.70
2022-10-17T12:45:48.780Z,41.90
2022-10-17T12:48:33.833Z,41.00
2022-10-17T12:53:54.502Z,39.70
2022-10-17T12:56:29.979Z,39.80
2022-10-17T12:58:58.304Z,40.60
2022-10-17T13:01:30.449Z,38.30
2022-10-17T13:03:58.100Z,39.40
2022-10-17T13:06:26.873Z,39.00
2022-10-17T13:09:03.574Z,38.80
2022-10-17T13:11:33.343Z,38.90
2022-10-17T13:14:01.348Z,43.00
2022-10-17T13:16:31.214Z,43.30
2022-10-17T13:18:58.404Z,43.30
2022-10-17T13:21:25.479Z,44.30
2022-10-17T13:23:54.250Z,44.70
2022-10-17T13:26:22.703Z,44.10
2022-10-17T13:29:01.714Z,43.80
2022-10-17T13:31:30.825Z,43.30
2022-10-17T13:33:58.630Z,43.30
2022-10-17T13:36:25.568Z,43.20
2022-10-17T13:38:52.312Z,44.40
2022-10-17T13:41:35.252Z,44.50
2022-10-17T13:44:04.345Z,44.10
2022-10-17T13:46:39.784Z,43.50
2022-10-17T13:49:11.384Z,44.80
2022-10-17T13:51:42.278Z,43.70
2022-10-17T13:54:27.673Z,42.30
2022-10-17T13:56:57.861Z,41.90
2022-10-17T13:59:50.919Z,40.30
2022-10-17T14:02:20.304Z,39.20
2022-10-17T14:08:09.274Z,35.70
2022-10-17T14:10:38.702Z,33.90
2022-10-17T14:13:08.182Z,32.90
2022-10-17T14:15:36.553Z,32.20
2022-10-17T14:18:08.907Z,31.90
2022-10-17T14:23:33.051Z,30.00
2022-10-17T14:26:09.169Z,28.70
2022-10-17T14:28:36.387Z,30.20
2022-10-17T14:31:15.281Z,31.40
2022-10-17T14:33:50.576Z,31.10
2022-10-17T14:36:19.816Z,32.60
2022-10-17T14:38:50.057Z,32.60
2022-10-17T14:41:44.497Z,32.40
2022-10-17T14:44:26.212Z,30.40
2022-10-17T14:46:56.750Z,30.60
2022-10-17T14:49:39.256Z,30.80
2022-10-17T14:52:18.583Z,32.20
2022-10-17T14:54:47.673Z,34.00
2022-10-17T14:57:27.679Z,35.20
2022-10-17T14:59:58.239Z,35.00
2022-10-17T15:02:28.167Z,35.10
2022-10-17T15:04:55.451Z,35.00
2022-10-17T15:07:23.513Z,35.70
2022-10-17T15:09:52.491Z,36.40
2022-10-17T15:12:28.143Z,36.40
2022-10-17T15:14:55.108Z,36.10
2022-10-17T15:17:28.501Z,37.40
2022-10-17T15:19:55.713Z,38.70
2022-10-17T15:22:22.761Z,38.50
2022-10-17T15:24:49.581Z,39.00
2022-10-17T15:27:22.153Z,40.00
2022-10-17T15:29:49.689Z,41.00
2022-10-17T15:32:16.527Z,41.40
2022-10-17T15:34:43.478Z,41.90
2022-10-17T15:37:20.687Z,42.50
2022-10-17T15:39:54.034Z,42.30
2022-10-17T15:42:28.793Z,44.50
2022-10-17T15:44:56.462Z,46.10
2022-10-17T15:47:30.820Z,47.30
2022-10-17T15:49:57.846Z,48.80
2022-10-17T15:52:24.683Z,49.60
2022-10-17T15:54:51.662Z,49.60
2022-10-17T15:57:24.316Z,50.30
2022-10-17T15:59:52.385Z,52.00
2022-10-17T16:02:20.885Z,52.50
2022-10-17T16:04:49.260Z,53.50
2022-10-17T16:07:16.668Z,55.30
2022-10-17T16:09:43.443Z,56.50
2022-10-17T16:12:18.113Z,57.40
2022-10-17T16:14:45.174Z,58.00
2022-10-17T16:17:16.394Z,58.30
2022-10-17T16:19:43.456Z,58.70
2022-10-17T16:22:21.179Z,59.30
2022-10-17T16:24:47.869Z,58.20
2022-10-17T16:27:14.565Z,59.20
2022-10-17T16:29:41.291Z,60.00
2022-10-17T16:32:09.924Z,60.30
2022-10-17T16:34:36.795Z,61.80
2022-10-17T16:37:03.578Z,62.70
2022-10-17T16:39:30.290Z,62.30
2022-10-17T16:41:58.603Z,62.90
2022-10-17T16:44:25.652Z,61.80
2022-10-17T16:46:52.339Z,62.60
2022-10-17T16:49:19.016Z,63.30
2022-10-17T16:51:45.671Z,63.40
2022-10-17T16:54:12.368Z,63.60
2022-10-17T16:56:39.094Z,64.30
2022-10-17T16:59:05.805Z,65.20
2022-10-17T17:01:32.629Z,65.00
2022-10-17T17:03:59.559Z,65.50
2022-10-17T17:06:30.092Z,65.00
2022-10-17T17:08:57.471Z,66.00
2022-10-17T17:11:26.613Z,66.80
2022-10-17T17:13:56.264Z,66.50
2022-10-17T17:16:25.357Z,66.20
2022-10-17T17:19:00.553Z,66.30
2022-10-17T17:21:27.903Z,66.20
2022-10-17T17:23:58.303Z,66.80
2022-10-17T17:26:26.792Z,67.00
2022-10-17T17:28:54.254Z,66.60
2022-10-17T17:31:24.035Z,66.50
2022-10-17T17:33:52.086Z,67.10
2022-10-17T17:36:21.914Z,67.10
2022-10-17T17:38:49.714Z,66.70
2022-10-17T17:41:18.420Z,67.50
2022-10-17T17:43:46.880Z,68.00
2022-10-17T17:46:16.455Z,67.50
2022-10-17T17:48:44.079Z,67.70
2022-10-17T17:51:14.506Z,67.30
2022-10-17T17:53:41.347Z,67.40
2022-10-17T17:56:11.028Z,67.60
2022-10-17T17:58:37.708Z,67.80
2022-10-17T18:01:21.333Z,68.20
2022-10-17T18:03:49.852Z,68.00
2022-10-17T18:06:17.253Z,68.00
2022-10-17T18:08:45.822Z,68.20
2022-10-17T18:11:15.054Z,69.30
2022-10-17T18:13:43.824Z,69.00
2022-10-17T18:16:13.572Z,68.70
2022-10-17T18:18:42.656Z,68.10
2022-10-17T18:21:10.988Z,68.10
2022-10-17T18:23:42.370Z,68.00
2022-10-17T18:26:09.873Z,68.50
2022-10-17T18:28:38.842Z,68.50
2022-10-17T18:31:19.408Z,68.80
2022-10-17T18:33:46.550Z,68.80
2022-10-17T18:36:15.559Z,68.80
2022-10-17T18:38:42.825Z,69.30
2022-10-17T18:41:17.092Z,69.60
2022-10-17T18:43:45.807Z,69.20
2022-10-17T18:46:15.679Z,69.40
2022-10-17T18:48:44.524Z,69.60
2022-10-17T18:51:12.624Z,68.80
2022-10-17T18:53:43.832Z,69.50
2022-10-17T18:56:11.480Z,69.50
2022-10-17T18:58:39.062Z,69.20
2022-10-17T19:01:15.362Z,69.00
2022-10-17T19:03:44.140Z,69.20
2022-10-17T19:06:12.555Z,70.00
2022-10-17T19:08:39.973Z,69.70
2022-10-17T19:11:12.376Z,70.00
2022-10-17T19:13:39.756Z,69.90
2022-10-17T19:16:08.341Z,70.30
2022-10-17T19:18:36.310Z,71.80
2022-10-17T19:21:07.976Z,71.90
2022-10-17T19:23:35.868Z,71.40
2022-10-17T19:26:11.115Z,71.60
2022-10-17T19:28:41.441Z,71.80
2022-10-17T19:31:08.590Z,72.10
2022-10-17T19:33:35.632Z,72.00
2022-10-17T19:36:05.453Z,71.60
2022-10-17T19:38:32.518Z,71.20
2022-10-17T19:43:31.709Z,70.70
2022-10-17T19:46:02.460Z,70.70
2022-10-17T19:48:32.383Z,71.40
2022-10-17T19:50:59.361Z,71.40
2022-10-17T19:53:27.969Z,71.60
2022-10-17T19:55:54.930Z,72.20
2022-10-17T19:58:21.681Z,72.80
2022-10-17T20:00:57.294Z,72.30
2022-10-17T20:03:28.141Z,70.90
2022-10-17T20:05:55.472Z,71.10
2022-10-17T20:08:22.340Z,72.40
2022-10-17T20:10:49.083Z,72.10
2022-10-17T20:13:16.078Z,71.90
2022-10-17T20:15:42.792Z,72.00
2022-10-17T20:18:09.934Z,71.50
2022-10-17T20:20:37.705Z,71.70
2022-10-17T20:23:04.870Z,71.60
2022-10-17T20:25:33.344Z,71.70
2022-10-17T20:28:00.413Z,71.80
2022-10-17T20:30:27.116Z,71.90
2022-10-17T20:32:55.597Z,72.40
2022-10-17T20:35:23.197Z,72.20
2022-10-17T20:37:50.105Z,72.50
2022-10-17T20:40:34.067Z,72.10
2022-10-17T20:43:02.374Z,72.70
2022-10-17T20:45:43.717Z,72.70
2022-10-17T20:48:16.242Z,73.00
2022-10-17T20:50:43.724Z,72.70
2022-10-17T20:53:35.564Z,72.80
2022-10-17T20:56:07.295Z,73.00
2022-10-17T20:58:34.061Z,72.90
2022-10-17T21:01:10.709Z,71.50
2022-10-17T21:03:42.303Z,70.90
2022-10-17T21:06:13.125Z,72.00
2022-10-17T21:08:40.230Z,72.20
2022-10-17T21:11:19.930Z,72.60
2022-10-17T21:13:47.890Z,73.00
2022-10-17T21:16:17.216Z,73.10
2022-10-17T21:18:44.718Z,73.20
2022-10-17T21:21:13.765Z,73.30
2022-10-17T21:23:42.124Z,73.40
2022-10-17T21:26:10.237Z,73.20
2022-10-17T21:28:37.539Z,72.80
2022-10-17T21:31:31.278Z,72.50
2022-10-17T21:33:58.640Z,73.10
2022-10-17T21:36:26.080Z,73.80
2022-10-17T21:38:53.711Z,74.10
2022-10-17T21:41:21.259Z,74.80
2022-10-17T21:43:48.123Z,74.40
2022-10-17T21:46:16.122Z,73.90
2022-10-17T21:48:43.273Z,73.80
2022-10-17T21:51:11.189Z,75.20
2022-10-17T21:53:38.117Z,74.90
2022-10-17T21:56:11.965Z,74.10
2022-10-17T21:58:38.609Z,72.80
2022-10-17T22:01:28.334Z,72.30
2022-10-17T22:03:58.995Z,71.90
2022-10-17T22:06:42.750Z,73.50
2022-10-17T22:09:11.758Z,73.40
2022-10-17T22:11:38.415Z,74.40
2022-10-17T22:14:07.151Z,75.70
2022-10-17T22:16:33.929Z,75.00
2022-10-17T22:19:04.902Z,73.90
2022-10-17T22:21:33.322Z,73.60
2022-10-17T22:24:00.825Z,73.40
2022-10-17T22:26:28.919Z,74.10
2022-10-17T22:28:56.024Z,73.90
2022-10-17T22:31:23.012Z,74.30
2022-10-17T22:33:50.689Z,74.40
2022-10-17T22:36:17.317Z,73.90
2022-10-17T22:38:43.953Z,74.00
2022-10-17T22:41:10.605Z,74.30
2022-10-17T22:43:37.313Z,73.20
2022-10-17T22:46:04.928Z,72.40
2022-10-17T22:48:32.013Z,72.90
2022-10-17T22:50:59.305Z,74.60
2022-10-17T22:53:26.872Z,76.20
2022-10-17T22:55:54.131Z,76.00
2022-10-17T22:58:21.376Z,76.00
2022-10-17T23:00:48.700Z,76.30
2022-10-17T23:03:15.445Z,76.20
2022-10-17T23:05:42.713Z,75.80
2022-10-17T23:08:09.525Z,75.20
2022-10-17T23:10:36.148Z,75.00
2022-10-17T23:13:03.117Z,74.60
2022-10-17T23:15:31.217Z,74.40
2022-10-17T23:17:58.534Z,74.50
2022-10-17T23:20:25.229Z,74.90
2022-10-17T23:22:51.893Z,74.50
2022-10-17T23:25:18.480Z,74.40
2022-10-17T23:27:45.076Z,73.90
2022-10-17T23:30:12.337Z,75.50
2022-10-17T23:32:39.347Z,74.80
2022-10-17T23:35:06.314Z,74.60
2022-10-17T23:37:33.018Z,74.20
2022-10-17T23:39:59.829Z,75.10
2022-10-17T23:42:26.493Z,74.60
2022-10-17T23:44:53.716Z,74.70
2022-10-17T23:47:20.375Z,72.70
2022-10-17T23:49:46.968Z,73.80
2022-10-17T23:52:13.781Z,75.60
2022-10-17T23:57:11.911Z,76.10
2022-10-17T23:59:38.534Z,74.90
